Terminal Aerodrome Forecast
Issued by NWS Twin Cities, MN

Home | Current Version | Previous Version | Text Only | Print | Product List | Glossary Off
Versions: 1 2 3 4 5 6 7 8 9 10 11 12 13 14 15 16 17 18

653
FTUS43 KMPX 252320
TAFSTC
TAF
KSTC 252320Z 2600/2624 02007KT P6SM -SHRA SCT020 OVC040
     FM260200 02010G18KT 5SM -SHRA BR SCT012 OVC020
     FM260500 02013G24KT 6SM -RA BR OVC008
     FM261500 35013G22KT P6SM VCSH OVC008=

USA.gov is the U.S. government's official web portal to all federal, state and local government web resources and services.